Susan Ann — WCY5700 — position and weather

sailwx.info

Track history (hours):
 
Tides and Currents Weather Stations Pressure Air Temp Water Temp Dewpoint Dewpoint Depression Visibility Wind Speed Wind Dir Waves Ship Positions

Susan Ann

Owner: CROSS SOUND FERRY SERVICES INC, NEW LONDON, CT. More information available from US FCC via Universal Licensing System and Coast Guard Vessel Documentation Center.

Last reported at 2014-Nov-21 23:33 UTC. Time now 2014-Nov-22 00:23 UTC.
Position N 41°21' W 072°06'.

Length 72 m; draft 4 m.

Type: Passenger vessel. MMSI: 367354350.

Date/timePositionNaut miles runAvg speedWind from/ knotsBaromVisibWave heightAir tempDewpointWater temp
2014-Nov-21 23:33N 41°21' W 072°06'10 9.9
2014-Nov-21 22:33N 41°12' W 072°11'4 4.1
2014-Nov-21 21:33N 41°09' W 072°14'9 8.6
2014-Nov-21 20:33N 41°16' W 072°07'6 5.7
2014-Nov-21 19:33N 41°21' W 072°06'9 8.8
2014-Nov-21 18:33N 41°13' W 072°09'5 5.4
2014-Nov-21 17:34N 41°09' W 072°14'8 8.3
2014-Nov-21 16:33N 41°16' W 072°07'6 5.8
2014-Nov-21 15:33N 41°21' W 072°06'9 9.0
2014-Nov-21 14:33N 41°13' W 072°10'5 5.1
2014-Nov-21 13:33N 41°09' W 072°14'8 8.1
2014-Nov-21 12:33N 41°16' W 072°08'6 6.0
2014-Nov-21 11:33N 41°21' W 072°06'1 0.1
2014-Nov-21 01:18N 41°20' W 072°05'811.2
2014-Nov-21 00:33N 41°14' W 072°12'5 4.9
2014-Nov-20 23:33N 41°09' W 072°14'9 8.8
2014-Nov-20 22:33N 41°15' W 072°06'6 6.0
2014-Nov-20 21:33N 41°21' W 072°06'10 9.7
2014-Nov-20 20:33N 41°13' W 072°12'4 4.2
2014-Nov-20 19:34N 41°09' W 072°14'10 9.7
2014-Nov-20 18:34N 41°15' W 072°05'6 5.9
2014-Nov-20 17:33N 41°21' W 072°06'8 8.4
2014-Nov-20 16:33N 41°13' W 072°10'6 5.6
2014-Nov-20 15:33N 41°09' W 072°14'1111.3
2014-Nov-20 14:33N 41°18' W 072°05'1 0.9
2014-Nov-20 13:33N 41°19' W 072°05'1212.1
2014-Nov-20 12:34N 41°09' W 072°14'0 0.3
2014-Nov-20 11:33N 41°09' W 072°14'0 0.0
2014-Nov-20 01:16N 41°09' W 072°14'912.1
2014-Nov-20 00:33N 41°16' W 072°08'6 5.6
2014-Nov-19 23:33N 41°21' W 072°06'9 9.2
2014-Nov-19 22:33N 41°13' W 072°11'5 4.7
2014-Nov-19 21:33N 41°09' W 072°14'9 8.7
2014-Nov-19 20:33N 41°16' W 072°07'6 5.5
2014-Nov-19 19:33N 41°21' W 072°06'8 8.5
2014-Nov-19 18:33N 41°13' W 072°10'6 5.5
2014-Nov-19 17:33N 41°09' W 072°14'10 9.8
2014-Nov-19 16:34N 41°16' W 072°04'6 5.9
2014-Nov-19 15:34N 41°21' W 072°06'9 9.0
2014-Nov-19 14:33N 41°13' W 072°11'5 4.9
2014-Nov-19 13:33N 41°09' W 072°14'10 9.6
2014-Nov-19 12:33N 41°16' W 072°05'6 5.6
2014-Nov-19 11:33N 41°21' W 072°06'0 0.0
2014-Nov-19 01:28N 41°21' W 072°06'9 9.8
2014-Nov-19 00:34N 41°13' W 072°10'5 5.0
2014-Nov-18 23:34N 41°09' W 072°14'9 8.6
2014-Nov-18 22:33N 41°15' W 072°05'7 6.8
2014-Nov-18 21:33N 41°21' W 072°06'9 9.4
2014-Nov-18 20:33N 41°13' W 072°11'4 4.5
2014-Nov-18 19:33N 41°09' W 072°14'9 9.1
2014-Nov-18 18:33N 41°15' W 072°05'6 6.3
2014-Nov-18 17:33N 41°21' W 072°06'1211.6
2014-Nov-18 16:33N 41°12' W 072°14'3 3.0
2014-Nov-18 15:33N 41°09' W 072°11'1111.1
2014-Nov-18 14:33N 41°20' W 072°05'3 2.9
2014-Nov-18 13:34N 41°17' W 072°05'1010.3
2014-Nov-18 12:33N 41°09' W 072°14'0 0.2
2014-Nov-18 11:33N 41°09' W 072°14'0 0.0
2014-Nov-18 01:32N 41°09' W 072°14'9 8.9
2014-Nov-18 00:34N 41°16' W 072°07'6 5.5
2014-Nov-17 23:33N 41°21' W 072°06'10 9.8
2014-Nov-17 22:33N 41°12' W 072°11'4 4.0
2014-Nov-17 21:33N 41°09' W 072°14'9 8.7
2014-Nov-17 20:34N 41°16' W 072°07'5 5.4
2014-Nov-17 19:33N 41°21' W 072°06'8 8.1
2014-Nov-17 18:34N 41°14' W 072°10'6 5.8
2014-Nov-17 17:34N 41°09' W 072°14'9 8.7
2014-Nov-17 16:34N 41°16' W 072°07'5 5.4
2014-Nov-17 15:34N 41°21' W 072°06'9 9.0
2014-Nov-17 14:33N 41°13' W 072°10'5 4.9
2014-Nov-17 13:33N 41°09' W 072°14'8 8.1
2014-Nov-17 12:34N 41°16' W 072°08'6 6.0
2014-Nov-17 11:33N 41°21' W 072°06'0 0.0
2014-Nov-17 01:26N 41°21' W 072°06'9 9.9
2014-Nov-17 00:34N 41°13' W 072°10'5 5.3
2014-Nov-16 23:33N 41°09' W 072°14'8 8.4
2014-Nov-16 22:33N 41°16' W 072°07'6 5.7
2014-Nov-16 21:33N 41°21' W 072°06'9 9.1
2014-Nov-16 20:33N 41°13' W 072°11'5 4.8
2014-Nov-16 19:34N 41°09' W 072°14'8 8.2
2014-Nov-16 18:33N 41°16' W 072°08'6 5.9
2014-Nov-16 17:33N 41°21' W 072°06'9 8.6
2014-Nov-16 16:34N 41°13' W 072°10'5 5.4
2014-Nov-16 15:33N 41°09' W 072°14'8 8.3
2014-Nov-16 14:34N 41°16' W 072°08'6 5.9
2014-Nov-16 13:34N 41°21' W 072°06'8 8.0
2014-Nov-16 12:34N 41°14' W 072°09'6 6.1
2014-Nov-16 11:33N 41°09' W 072°14'2 0.2
2014-Nov-16 01:33N 41°11' W 072°13'1111.4
2014-Nov-16 00:33N 41°21' W 072°05'0 0.0
2014-Nov-15 23:33N 41°21' W 072°06'9 9.1
2014-Nov-15 22:33N 41°13' W 072°10'5 4.9
2014-Nov-15 21:33N 41°09' W 072°14'8 8.5
2014-Nov-15 20:33N 41°16' W 072°07'6 5.6
2014-Nov-15 19:33N 41°21' W 072°06'8 8.4
2014-Nov-15 18:33N 41°13' W 072°09'6 5.7
2014-Nov-15 17:33N 41°09' W 072°14'8 7.8
2014-Nov-15 16:33N 41°15' W 072°08'6 6.2
2014-Nov-15 15:33N 41°21' W 072°06'8 8.2
2014-Nov-15 14:33N 41°14' W 072°09'6 5.8
2014-Nov-15 13:33N 41°09' W 072°14'8 8.4
2014-Nov-15 12:33N 41°16' W 072°07'6 5.8
2014-Nov-15 11:33N 41°21' W 072°06'1 0.1
2014-Nov-15 01:09N 41°21' W 072°05'812.6
2014-Nov-15 00:33N 41°14' W 072°09'6 5.9
2014-Nov-14 23:33N 41°09' W 072°14'9 8.9
2014-Nov-14 22:33N 41°16' W 072°07'5 5.3
2014-Nov-14 21:34N 41°21' W 072°06'9 9.2
2014-Nov-14 20:34N 41°13' W 072°10'5 4.8
2014-Nov-14 19:34N 41°09' W 072°14'8 7.9
2014-Nov-14 18:33N 41°16' W 072°08'6 6.1
2014-Nov-14 17:33N 41°21' W 072°06'9 8.8
2014-Nov-14 16:33N 41°13' W 072°10'5 5.2
2014-Nov-14 15:34N 41°09' W 072°14'8 8.1
2014-Nov-14 14:33N 41°16' W 072°08'3 1.5
2014-Nov-14 12:34N 41°13' W 072°10'5 5.1
2014-Nov-14 11:33N 41°09' W 072°14'0 0.0
2014-Nov-14 01:17N 41°09' W 072°14'810.9
2014-Nov-14 00:34N 41°15' W 072°08'6 6.2
2014-Nov-13 23:34N 41°21' W 072°06'1010.0
2014-Nov-13 22:33N 41°12' W 072°11'4 3.9
2014-Nov-13 21:33N 41°09' W 072°14'9 8.8
2014-Nov-13 20:33N 41°16' W 072°07'5 5.3
2014-Nov-13 19:34N 41°21' W 072°06'9 8.6
2014-Nov-13 18:33N 41°13' W 072°10'5 5.3
2014-Nov-13 17:33N 41°09' W 072°14'8 7.8
2014-Nov-13 16:33N 41°15' W 072°08'6 6.2
2014-Nov-13 15:33N 41°21' W 072°06'9 8.7
2014-Nov-13 14:33N 41°13' W 072°10'5 5.4
2014-Nov-13 13:33N 41°09' W 072°14'8 8.2
2014-Nov-13 12:33N 41°16' W 072°08'6 5.9
2014-Nov-13 11:34N 41°21' W 072°06'1 0.1
2014-Nov-13 01:11N 41°21' W 072°05'812.2
2014-Nov-13 00:33N 41°14' W 072°09'6 5.9
2014-Nov-12 23:33N 41°09' W 072°14'8 7.8
2014-Nov-12 22:33N 41°15' W 072°08'6 6.2
2014-Nov-12 21:33N 41°21' W 072°06'8 8.5
2014-Nov-12 20:33N 41°13' W 072°10'6 5.5
2014-Nov-12 19:33N 41°09' W 072°14'8 8.0
2014-Nov-12 18:33N 41°16' W 072°08'6 6.1
2014-Nov-12 17:33N 41°21' W 072°06'  
Track history (hours):
 
Tides and Currents Weather Stations Pressure Air Temp Water Temp Dewpoint Dewpoint Depression Visibility Wind Speed Wind Dir Waves Ship Positions

Susan Ann

Owner: CROSS SOUND FERRY SERVICES INC, NEW LONDON, CT. More information available from US FCC via Universal Licensing System and Coast Guard Vessel Documentation Center.

Last reported at 2014-Nov-21 23:33 UTC. Time now 2014-Nov-22 00:23 UTC.
Position N 41°21' W 072°06'.

Length 72 m; draft 4 m.

Type: Passenger vessel. MMSI: 367354350.

Date/timePositionNaut miles runAvg speedWind from/ knotsBaromVisibWave heightAir tempDewpointWater temp
2014-Nov-21 23:33N 41°21' W 072°06'10 9.9
2014-Nov-21 22:33N 41°12' W 072°11'4 4.1
2014-Nov-21 21:33N 41°09' W 072°14'9 8.6
2014-Nov-21 20:33N 41°16' W 072°07'6 5.7
2014-Nov-21 19:33N 41°21' W 072°06'9 8.8
2014-Nov-21 18:33N 41°13' W 072°09'5 5.4
2014-Nov-21 17:34N 41°09' W 072°14'8 8.3
2014-Nov-21 16:33N 41°16' W 072°07'6 5.8
2014-Nov-21 15:33N 41°21' W 072°06'9 9.0
2014-Nov-21 14:33N 41°13' W 072°10'5 5.1
2014-Nov-21 13:33N 41°09' W 072°14'8 8.1
2014-Nov-21 12:33N 41°16' W 072°08'6 6.0
2014-Nov-21 11:33N 41°21' W 072°06'1 0.1
2014-Nov-21 01:18N 41°20' W 072°05'811.2
2014-Nov-21 00:33N 41°14' W 072°12'5 4.9
2014-Nov-20 23:33N 41°09' W 072°14'9 8.8
2014-Nov-20 22:33N 41°15' W 072°06'6 6.0
2014-Nov-20 21:33N 41°21' W 072°06'10 9.7
2014-Nov-20 20:33N 41°13' W 072°12'4 4.2
2014-Nov-20 19:34N 41°09' W 072°14'10 9.7
2014-Nov-20 18:34N 41°15' W 072°05'6 5.9
2014-Nov-20 17:33N 41°21' W 072°06'8 8.4
2014-Nov-20 16:33N 41°13' W 072°10'6 5.6
2014-Nov-20 15:33N 41°09' W 072°14'1111.3
2014-Nov-20 14:33N 41°18' W 072°05'1 0.9
2014-Nov-20 13:33N 41°19' W 072°05'1212.1
2014-Nov-20 12:34N 41°09' W 072°14'0 0.3
2014-Nov-20 11:33N 41°09' W 072°14'0 0.0
2014-Nov-20 01:16N 41°09' W 072°14'912.1
2014-Nov-20 00:33N 41°16' W 072°08'6 5.6
2014-Nov-19 23:33N 41°21' W 072°06'9 9.2
2014-Nov-19 22:33N 41°13' W 072°11'5 4.7
2014-Nov-19 21:33N 41°09' W 072°14'9 8.7
2014-Nov-19 20:33N 41°16' W 072°07'6 5.5
2014-Nov-19 19:33N 41°21' W 072°06'8 8.5
2014-Nov-19 18:33N 41°13' W 072°10'6 5.5
2014-Nov-19 17:33N 41°09' W 072°14'10 9.8
2014-Nov-19 16:34N 41°16' W 072°04'6 5.9
2014-Nov-19 15:34N 41°21' W 072°06'9 9.0
2014-Nov-19 14:33N 41°13' W 072°11'5 4.9
2014-Nov-19 13:33N 41°09' W 072°14'10 9.6
2014-Nov-19 12:33N 41°16' W 072°05'6 5.6
2014-Nov-19 11:33N 41°21' W 072°06'0 0.0
2014-Nov-19 01:28N 41°21' W 072°06'9 9.8
2014-Nov-19 00:34N 41°13' W 072°10'5 5.0
2014-Nov-18 23:34N 41°09' W 072°14'9 8.6
2014-Nov-18 22:33N 41°15' W 072°05'7 6.8
2014-Nov-18 21:33N 41°21' W 072°06'9 9.4
2014-Nov-18 20:33N 41°13' W 072°11'4 4.5
2014-Nov-18 19:33N 41°09' W 072°14'9 9.1
2014-Nov-18 18:33N 41°15' W 072°05'6 6.3
2014-Nov-18 17:33N 41°21' W 072°06'1211.6
2014-Nov-18 16:33N 41°12' W 072°14'3 3.0
2014-Nov-18 15:33N 41°09' W 072°11'1111.1
2014-Nov-18 14:33N 41°20' W 072°05'3 2.9
2014-Nov-18 13:34N 41°17' W 072°05'1010.3
2014-Nov-18 12:33N 41°09' W 072°14'0 0.2
2014-Nov-18 11:33N 41°09' W 072°14'0 0.0
2014-Nov-18 01:32N 41°09' W 072°14'9 8.9
2014-Nov-18 00:34N 41°16' W 072°07'6 5.5
2014-Nov-17 23:33N 41°21' W 072°06'10 9.8
2014-Nov-17 22:33N 41°12' W 072°11'4 4.0
2014-Nov-17 21:33N 41°09' W 072°14'9 8.7
2014-Nov-17 20:34N 41°16' W 072°07'5 5.4
2014-Nov-17 19:33N 41°21' W 072°06'8 8.1
2014-Nov-17 18:34N 41°14' W 072°10'6 5.8
2014-Nov-17 17:34N 41°09' W 072°14'9 8.7
2014-Nov-17 16:34N 41°16' W 072°07'5 5.4
2014-Nov-17 15:34N 41°21' W 072°06'9 9.0
2014-Nov-17 14:33N 41°13' W 072°10'5 4.9
2014-Nov-17 13:33N 41°09' W 072°14'8 8.1
2014-Nov-17 12:34N 41°16' W 072°08'6 6.0
2014-Nov-17 11:33N 41°21' W 072°06'0 0.0
2014-Nov-17 01:26N 41°21' W 072°06'9 9.9
2014-Nov-17 00:34N 41°13' W 072°10'5 5.3
2014-Nov-16 23:33N 41°09' W 072°14'8 8.4
2014-Nov-16 22:33N 41°16' W 072°07'6 5.7
2014-Nov-16 21:33N 41°21' W 072°06'9 9.1
2014-Nov-16 20:33N 41°13' W 072°11'5 4.8
2014-Nov-16 19:34N 41°09' W 072°14'8 8.2
2014-Nov-16 18:33N 41°16' W 072°08'6 5.9
2014-Nov-16 17:33N 41°21' W 072°06'9 8.6
2014-Nov-16 16:34N 41°13' W 072°10'5 5.4
2014-Nov-16 15:33N 41°09' W 072°14'8 8.3
2014-Nov-16 14:34N 41°16' W 072°08'6 5.9
2014-Nov-16 13:34N 41°21' W 072°06'8 8.0
2014-Nov-16 12:34N 41°14' W 072°09'6 6.1
2014-Nov-16 11:33N 41°09' W 072°14'2 0.2
2014-Nov-16 01:33N 41°11' W 072°13'1111.4
2014-Nov-16 00:33N 41°21' W 072°05'0 0.0
2014-Nov-15 23:33N 41°21' W 072°06'9 9.1
2014-Nov-15 22:33N 41°13' W 072°10'5 4.9
2014-Nov-15 21:33N 41°09' W 072°14'8 8.5
2014-Nov-15 20:33N 41°16' W 072°07'6 5.6
2014-Nov-15 19:33N 41°21' W 072°06'8 8.4
2014-Nov-15 18:33N 41°13' W 072°09'6 5.7
2014-Nov-15 17:33N 41°09' W 072°14'8 7.8
2014-Nov-15 16:33N 41°15' W 072°08'6 6.2
2014-Nov-15 15:33N 41°21' W 072°06'8 8.2
2014-Nov-15 14:33N 41°14' W 072°09'6 5.8
2014-Nov-15 13:33N 41°09' W 072°14'8 8.4
2014-Nov-15 12:33N 41°16' W 072°07'6 5.8
2014-Nov-15 11:33N 41°21' W 072°06'1 0.1
2014-Nov-15 01:09N 41°21' W 072°05'812.6
2014-Nov-15 00:33N 41°14' W 072°09'6 5.9
2014-Nov-14 23:33N 41°09' W 072°14'9 8.9
2014-Nov-14 22:33N 41°16' W 072°07'5 5.3
2014-Nov-14 21:34N 41°21' W 072°06'9 9.2
2014-Nov-14 20:34N 41°13' W 072°10'5 4.8
2014-Nov-14 19:34N 41°09' W 072°14'8 7.9
2014-Nov-14 18:33N 41°16' W 072°08'6 6.1
2014-Nov-14 17:33N 41°21' W 072°06'9 8.8
2014-Nov-14 16:33N 41°13' W 072°10'5 5.2
2014-Nov-14 15:34N 41°09' W 072°14'8 8.1
2014-Nov-14 14:33N 41°16' W 072°08'3 1.5
2014-Nov-14 12:34N 41°13' W 072°10'5 5.1
2014-Nov-14 11:33N 41°09' W 072°14'0 0.0
2014-Nov-14 01:17N 41°09' W 072°14'810.9
2014-Nov-14 00:34N 41°15' W 072°08'6 6.2
2014-Nov-13 23:34N 41°21' W 072°06'1010.0
2014-Nov-13 22:33N 41°12' W 072°11'4 3.9
2014-Nov-13 21:33N 41°09' W 072°14'9 8.8
2014-Nov-13 20:33N 41°16' W 072°07'5 5.3
2014-Nov-13 19:34N 41°21' W 072°06'9 8.6
2014-Nov-13 18:33N 41°13' W 072°10'5 5.3
2014-Nov-13 17:33N 41°09' W 072°14'8 7.8
2014-Nov-13 16:33N 41°15' W 072°08'6 6.2
2014-Nov-13 15:33N 41°21' W 072°06'9 8.7
2014-Nov-13 14:33N 41°13' W 072°10'5 5.4
2014-Nov-13 13:33N 41°09' W 072°14'8 8.2
2014-Nov-13 12:33N 41°16' W 072°08'6 5.9
2014-Nov-13 11:34N 41°21' W 072°06'1 0.1
2014-Nov-13 01:11N 41°21' W 072°05'812.2
2014-Nov-13 00:33N 41°14' W 072°09'6 5.9
2014-Nov-12 23:33N 41°09' W 072°14'8 7.8
2014-Nov-12 22:33N 41°15' W 072°08'6 6.2
2014-Nov-12 21:33N 41°21' W 072°06'8 8.5
2014-Nov-12 20:33N 41°13' W 072°10'6 5.5
2014-Nov-12 19:33N 41°09' W 072°14'8 8.0
2014-Nov-12 18:33N 41°16' W 072°08'6 6.1
2014-Nov-12 17:33N 41°21' W 072°06'  

Dump ship's entire track history